• Join FlightAware (Why Join?)
  • Login
  • US Flag 
12:53AM EDT


 

Airport Tracker/Info


-or-


 

Live Flight TrackerFlight Track Log ✈ EMD28 ✈ 06-Oct-2013 ✈ KPDK - KGYH

Flight Track Log - Related Links

Times and Time Zones

All times are in EDT time to prevent confusion due to time zone crossing. See the EMD28 flight status page for this flight to view local times or setup timezone preferences in your user account.

Time Position Orientation Groundspeed Altitude Reporting Facility
EDT Latitude Longitude Course Direction KTS MPH feet Rate Location/Type
07:21AM 33.9000 -84.2500 57° Northeast 136 157 3,000  Level Atlanta TRACON
07:22AM 33.9000 -84.2167 90° East 142 163 3,800 1,200 Climbing Atlanta TRACON
07:23AM 33.9167 -84.1500 73° East 158 182 5,300 1,260 Climbing Atlanta TRACON
07:24AM 33.9167 -84.1167 90° East 159 183 6,500 1,320 Climbing Atlanta TRACON
07:25AM 33.9333 -84.0667 68° East 151 174 7,700 1,200 Climbing Atlanta TRACON
07:26AM 33.9500 -84.0167 68° East 153 176 8,900 660 Climbing Atlanta TRACON
07:27AM 34.0333 -83.9656 57° Northeast  Level Estimated
07:27AM 33.9500 -83.9500 90° East 198 228 9,100  Level Atlanta TRACON
07:28AM 33.9500 -83.9000 90° East 180 207 10,200 1,020 Climbing Atlanta TRACON
07:29AM 33.9528 -83.8633 85° East 177 204 10,600 480 Climbing Atlanta Center
07:30AM 33.9528 -83.8058 90° East 198 228 11,000 180 Climbing Atlanta Center
07:31AM 33.9503 -83.7383 93° East 205 236 11,000  Level Atlanta Center
07:32AM 33.9564 -83.6656 84° East 219 252 11,000  Level Atlanta Center
07:33AM 33.9917 -83.6003 57° Northeast 214 246 11,000  Level Atlanta Center
07:34AM 34.0269 -83.5350 57° Northeast 229 264 11,000  Level Atlanta Center
07:35AM 34.0622 -83.4694 57° Northeast 229 264 11,000  Level Atlanta Center
07:36AM 34.0972 -83.3992 59° Northeast 229 264 11,000  Level Atlanta Center
07:37AM 34.1325 -83.3336 57° Northeast 229 264 11,000  Level Atlanta Center
07:38AM 34.1697 -83.2706 54° Northeast 234 269 11,000  Level Atlanta Center
07:39AM 34.2006 -83.2025 61° Northeast 228 262 11,000  Level Atlanta Center
07:40AM 34.2375 -83.1392 55° Northeast 228 262 11,000  Level Atlanta Center
07:41AM 34.2664 -83.0711 63° Northeast 228 262 11,000  Level Atlanta Center
07:42AM 34.2992 -83.0053 59° Northeast 228 262 11,000  Level Atlanta Center
07:43AM 34.3361 -82.9419 55° Northeast 228 262 11,000  Level Atlanta Center
07:44AM 34.3689 -82.8761 59° Northeast 228 262 11,000 -60 Level Atlanta Center
07:45AM 34.3997 -82.8103 60° Northeast 228 262 10,900 -720 Descending Atlanta Center
07:46AM 34.4428 -82.7467 51° Northeast 233 268 9,600 -1,500 Descending Atlanta Center
07:47AM 34.4817 -82.6706 58° Northeast 249 287 8,000 -1,560 Descending Atlanta Center
07:48AM 34.5269 -82.6092 48° Northeast 249 287 6,500 -1,380 Descending Atlanta Center
07:49AM 34.5783 -82.5603 38° Northeast 237 273 5,300 -1,260 Descending Atlanta Center
07:50AM 34.6258 -82.5142 39° Northeast 232 267 4,000 -1,260 Descending Atlanta Center
07:51AM 34.6775 -82.4628 39° Northeast 232 267 2,800 -1,200 Descending Atlanta Center
07:53AM 34.7458 -82.3708 39° Northeast  Level FlightAware Approximate
08:00AM 34.7500 -82.3667 39° Northeast  Level FlightAware Approximate
08:01AM 34.7583 -82.3764 39° Northeast  Level Estimated